sensor_id;sensor_type;location;lat;lon;timestamp;temperature;humidity
75893;DHT22;64572;50.950;3.676;2022-10-31T00:00:40;12.30;88.50
75893;DHT22;64572;50.950;3.676;2022-10-31T00:03:06;12.40;88.50
75893;DHT22;64572;50.950;3.676;2022-10-31T00:05:31;12.50;85.50
75893;DHT22;64572;50.950;3.676;2022-10-31T00:07:57;12.20;87.30
75893;DHT22;64572;50.950;3.676;2022-10-31T00:10:23;12.10;87.20
75893;DHT22;64572;50.950;3.676;2022-10-31T00:12:48;11.90;86.30
75893;DHT22;64572;50.950;3.676;2022-10-31T00:15:14;11.90;87.10
75893;DHT22;64572;50.950;3.676;2022-10-31T00:17:42;11.80;87.70
75893;DHT22;64572;50.950;3.676;2022-10-31T00:20:09;11.90;88.00
75893;DHT22;64572;50.950;3.676;2022-10-31T00:22:34;12.00;87.80
75893;DHT22;64572;50.950;3.676;2022-10-31T00:25:00;12.10;87.50
75893;DHT22;64572;50.950;3.676;2022-10-31T00:27:26;12.20;87.80
75893;DHT22;64572;50.950;3.676;2022-10-31T00:29:51;12.30;87.30
75893;DHT22;64572;50.950;3.676;2022-10-31T00:32:17;12.30;87.50
75893;DHT22;64572;50.950;3.676;2022-10-31T00:34:42;12.30;85.50
75893;DHT22;64572;50.950;3.676;2022-10-31T00:37:08;12.20;86.00
75893;DHT22;64572;50.950;3.676;2022-10-31T00:39:33;12.20;85.80
75893;DHT22;64572;50.950;3.676;2022-10-31T00:41:59;12.10;86.30
75893;DHT22;64572;50.950;3.676;2022-10-31T00:44:25;12.10;86.20
75893;DHT22;64572;50.950;3.676;2022-10-31T00:46:50;12.00;86.70
75893;DHT22;64572;50.950;3.676;2022-10-31T00:49:16;12.00;86.70
75893;DHT22;64572;50.950;3.676;2022-10-31T00:51:42;11.90;86.80
75893;DHT22;64572;50.950;3.676;2022-10-31T00:54:07;11.80;88.40
75893;DHT22;64572;50.950;3.676;2022-10-31T00:56:33;11.80;88.40
75893;DHT22;64572;50.950;3.676;2022-10-31T00:58:59;11.80;88.30
75893;DHT22;64572;50.950;3.676;2022-10-31T01:01:24;11.80;87.40
75893;DHT22;64572;50.950;3.676;2022-10-31T01:03:50;11.80;88.30
75893;DHT22;64572;50.950;3.676;2022-10-31T01:06:16;11.80;88.00
75893;DHT22;64572;50.950;3.676;2022-10-31T01:08:46;11.70;88.10
75893;DHT22;64572;50.950;3.676;2022-10-31T01:11:13;11.60;88.00
75893;DHT22;64572;50.950;3.676;2022-10-31T01:13:39;11.70;88.40
75893;DHT22;64572;50.950;3.676;2022-10-31T01:16:06;11.70;88.00
75893;DHT22;64572;50.950;3.676;2022-10-31T01:18:33;11.60;88.90
75893;DHT22;64572;50.950;3.676;2022-10-31T01:21:11;11.50;88.10
75893;DHT22;64572;50.950;3.676;2022-10-31T01:23:37;11.60;89.50
75893;DHT22;64572;50.950;3.676;2022-10-31T01:26:13;11.60;87.50
75893;DHT22;64572;50.950;3.676;2022-10-31T01:28:46;11.40;88.10
75893;DHT22;64572;50.950;3.676;2022-10-31T01:31:12;11.20;89.00
75893;DHT22;64572;50.950;3.676;2022-10-31T01:33:39;11.10;90.00
75893;DHT22;64572;50.950;3.676;2022-10-31T01:36:21;11.30;90.30
75893;DHT22;64572;50.950;3.676;2022-10-31T01:38:48;11.30;89.40
75893;DHT22;64572;50.950;3.676;2022-10-31T01:41:20;11.40;89.00
75893;DHT22;64572;50.950;3.676;2022-10-31T01:43:48;11.50;88.70
75893;DHT22;64572;50.950;3.676;2022-10-31T01:46:17;11.60;88.70
75893;DHT22;64572;50.950;3.676;2022-10-31T01:48:45;11.70;88.20
75893;DHT22;64572;50.950;3.676;2022-10-31T01:51:15;11.70;88.10
75893;DHT22;64572;50.950;3.676;2022-10-31T01:53:44;11.70;88.00
75893;DHT22;64572;50.950;3.676;2022-10-31T01:56:12;11.70;86.30
75893;DHT22;64572;50.950;3.676;2022-10-31T01:58:39;11.70;87.10
75893;DHT22;64572;50.950;3.676;2022-10-31T02:01:05;11.50;87.20
75893;DHT22;64572;50.950;3.676;2022-10-31T02:03:31;11.40;87.30
75893;DHT22;64572;50.950;3.676;2022-10-31T02:06:01;11.30;88.90
75893;DHT22;64572;50.950;3.676;2022-10-31T02:08:30;11.30;90.00
75893;DHT22;64572;50.950;3.676;2022-10-31T02:10:58;11.40;89.40
75893;DHT22;64572;50.950;3.676;2022-10-31T02:13:25;11.50;89.70
75893;DHT22;64572;50.950;3.676;2022-10-31T02:15:56;11.60;90.00
75893;DHT22;64572;50.950;3.676;2022-10-31T02:18:24;11.50;89.70
75893;DHT22;64572;50.950;3.676;2022-10-31T02:21:02;11.60;89.80
75893;DHT22;64572;50.950;3.676;2022-10-31T02:27:08;11.50;88.30
75893;DHT22;64572;50.950;3.676;2022-10-31T02:35:22;11.30;88.80
75893;DHT22;64572;50.950;3.676;2022-10-31T02:40:50;11.30;88.80
75893;DHT22;64572;50.950;3.676;2022-10-31T02:43:29;11.30;88.50
75893;DHT22;64572;50.950;3.676;2022-10-31T02:48:38;11.50;88.30
75893;DHT22;64572;50.950;3.676;2022-10-31T02:51:05;11.40;88.10
75893;DHT22;64572;50.950;3.676;2022-10-31T02:53:35;11.30;87.90
75893;DHT22;64572;50.950;3.676;2022-10-31T02:56:14;11.30;86.70
75893;DHT22;64572;50.950;3.676;2022-10-31T02:58:50;11.30;88.60
75893;DHT22;64572;50.950;3.676;2022-10-31T03:06:39;11.20;87.00
75893;DHT22;64572;50.950;3.676;2022-10-31T03:09:24;11.00;88.50
75893;DHT22;64572;50.950;3.676;2022-10-31T03:12:05;10.40;90.20
75893;DHT22;64572;50.950;3.676;2022-10-31T03:14:41;10.40;91.10
75893;DHT22;64572;50.950;3.676;2022-10-31T03:17:13;10.40;90.60
75893;DHT22;64572;50.950;3.676;2022-10-31T03:19:43;10.60;90.40
75893;DHT22;64572;50.950;3.676;2022-10-31T03:22:22;10.70;90.30
75893;DHT22;64572;50.950;3.676;2022-10-31T03:24:49;10.70;88.80
75893;DHT22;64572;50.950;3.676;2022-10-31T03:27:19;10.80;88.60
75893;DHT22;64572;50.950;3.676;2022-10-31T03:29:49;10.60;89.10
75893;DHT22;64572;50.950;3.676;2022-10-31T03:32:23;10.40;90.10
75893;DHT22;64572;50.950;3.676;2022-10-31T03:34:50;10.50;90.30
75893;DHT22;64572;50.950;3.676;2022-10-31T03:37:19;10.60;89.90
75893;DHT22;64572;50.950;3.676;2022-10-31T03:39:48;10.70;89.80
75893;DHT22;64572;50.950;3.676;2022-10-31T03:42:18;10.90;88.90
75893;DHT22;64572;50.950;3.676;2022-10-31T03:44:53;10.90;88.70
75893;DHT22;64572;50.950;3.676;2022-10-31T03:47:21;10.80;87.20
75893;DHT22;64572;50.950;3.676;2022-10-31T03:49:47;10.70;88.10
75893;DHT22;64572;50.950;3.676;2022-10-31T03:55:18;10.70;88.00
75893;DHT22;64572;50.950;3.676;2022-10-31T04:00:14;10.50;87.80
75893;DHT22;64572;50.950;3.676;2022-10-31T04:02:43;10.50;86.30
75893;DHT22;64572;50.950;3.676;2022-10-31T04:05:10;10.20;88.80
75893;DHT22;64572;50.950;3.676;2022-10-31T04:07:42;10.00;89.80
75893;DHT22;64572;50.950;3.676;2022-10-31T04:10:12;10.20;89.50
75893;DHT22;64572;50.950;3.676;2022-10-31T04:12:39;10.40;88.90
75893;DHT22;64572;50.950;3.676;2022-10-31T04:15:09;10.20;86.60
75893;DHT22;64572;50.950;3.676;2022-10-31T04:17:40;9.70;91.20
75893;DHT22;64572;50.950;3.676;2022-10-31T04:20:07;9.70;91.10
75893;DHT22;64572;50.950;3.676;2022-10-31T04:22:33;9.70;91.10
75893;DHT22;64572;50.950;3.676;2022-10-31T04:24:59;9.70;91.40
75893;DHT22;64572;50.950;3.676;2022-10-31T04:27:24;9.80;92.10
75893;DHT22;64572;50.950;3.676;2022-10-31T04:29:50;9.60;92.60
75893;DHT22;64572;50.950;3.676;2022-10-31T04:32:16;9.50;92.40
75893;DHT22;64572;50.950;3.676;2022-10-31T04:34:41;9.50;92.90
75893;DHT22;64572;50.950;3.676;2022-10-31T04:37:07;9.60;93.30
75893;DHT22;64572;50.950;3.676;2022-10-31T04:39:32;9.50;92.40
75893;DHT22;64572;50.950;3.676;2022-10-31T04:41:58;9.60;93.00
75893;DHT22;64572;50.950;3.676;2022-10-31T04:44:23;9.80;91.90
75893;DHT22;64572;50.950;3.676;2022-10-31T04:46:49;10.00;91.50
75893;DHT22;64572;50.950;3.676;2022-10-31T04:49:15;9.90;91.00
75893;DHT22;64572;50.950;3.676;2022-10-31T04:51:40;9.60;91.40
75893;DHT22;64572;50.950;3.676;2022-10-31T04:54:06;9.60;92.20
75893;DHT22;64572;50.950;3.676;2022-10-31T04:56:32;9.50;92.70
75893;DHT22;64572;50.950;3.676;2022-10-31T04:58:57;9.50;92.80
75893;DHT22;64572;50.950;3.676;2022-10-31T05:01:23;9.40;92.60
75893;DHT22;64572;50.950;3.676;2022-10-31T05:03:48;9.30;92.80
75893;DHT22;64572;50.950;3.676;2022-10-31T05:06:14;9.20;93.40
75893;DHT22;64572;50.950;3.676;2022-10-31T05:08:42;9.20;93.80
75893;DHT22;64572;50.950;3.676;2022-10-31T05:11:08;9.30;94.30
75893;DHT22;64572;50.950;3.676;2022-10-31T05:13:34;9.40;94.20
75893;DHT22;64572;50.950;3.676;2022-10-31T05:15:59;9.60;92.90
75893;DHT22;64572;50.950;3.676;2022-10-31T05:18:25;9.80;92.00
75893;DHT22;64572;50.950;3.676;2022-10-31T05:20:50;9.70;91.60
75893;DHT22;64572;50.950;3.676;2022-10-31T05:23:16;9.50;92.30
75893;DHT22;64572;50.950;3.676;2022-10-31T05:25:42;9.30;92.70
75893;DHT22;64572;50.950;3.676;2022-10-31T05:28:08;9.30;92.70
75893;DHT22;64572;50.950;3.676;2022-10-31T05:30:34;9.30;92.70
75893;DHT22;64572;50.950;3.676;2022-10-31T05:33:00;9.30;93.90
75893;DHT22;64572;50.950;3.676;2022-10-31T05:35:28;9.30;94.10
75893;DHT22;64572;50.950;3.676;2022-10-31T05:37:54;9.40;94.30
75893;DHT22;64572;50.950;3.676;2022-10-31T05:40:21;9.60;93.20
75893;DHT22;64572;50.950;3.676;2022-10-31T05:42:50;9.90;92.10
75893;DHT22;64572;50.950;3.676;2022-10-31T05:45:17;10.10;91.30
75893;DHT22;64572;50.950;3.676;2022-10-31T05:47:53;10.40;90.90
75893;DHT22;64572;50.950;3.676;2022-10-31T05:50:18;10.50;90.40
75893;DHT22;64572;50.950;3.676;2022-10-31T05:52:44;10.40;89.70
75893;DHT22;64572;50.950;3.676;2022-10-31T05:55:10;10.40;90.40
75893;DHT22;64572;50.950;3.676;2022-10-31T05:57:35;10.20;90.20
75893;DHT22;64572;50.950;3.676;2022-10-31T06:00:01;9.90;92.00
75893;DHT22;64572;50.950;3.676;2022-10-31T06:02:27;9.90;92.20
75893;DHT22;64572;50.950;3.676;2022-10-31T06:04:57;10.00;92.00
75893;DHT22;64572;50.950;3.676;2022-10-31T06:07:23;10.20;91.90
75893;DHT22;64572;50.950;3.676;2022-10-31T06:09:49;10.40;92.00
75893;DHT22;64572;50.950;3.676;2022-10-31T06:12:14;10.70;91.70
75893;DHT22;64572;50.950;3.676;2022-10-31T06:14:40;10.80;90.80
75893;DHT22;64572;50.950;3.676;2022-10-31T06:17:05;10.90;91.30
75893;DHT22;64572;50.950;3.676;2022-10-31T06:19:31;11.00;91.30
75893;DHT22;64572;50.950;3.676;2022-10-31T06:21:57;11.10;91.00
75893;DHT22;64572;50.950;3.676;2022-10-31T06:24:22;11.20;91.50
75893;DHT22;64572;50.950;3.676;2022-10-31T06:26:51;11.20;91.90
75893;DHT22;64572;50.950;3.676;2022-10-31T06:29:17;11.20;91.50
75893;DHT22;64572;50.950;3.676;2022-10-31T06:31:43;11.20;92.20
75893;DHT22;64572;50.950;3.676;2022-10-31T06:34:08;11.20;92.00
75893;DHT22;64572;50.950;3.676;2022-10-31T06:36:34;11.40;91.70
75893;DHT22;64572;50.950;3.676;2022-10-31T06:39:00;11.50;91.40
75893;DHT22;64572;50.950;3.676;2022-10-31T06:41:26;11.60;91.20
75893;DHT22;64572;50.950;3.676;2022-10-31T06:43:51;11.60;91.10
75893;DHT22;64572;50.950;3.676;2022-10-31T06:46:17;11.60;91.00
75893;DHT22;64572;50.950;3.676;2022-10-31T06:48:43;11.60;90.80
75893;DHT22;64572;50.950;3.676;2022-10-31T06:51:10;11.70;90.90
75893;DHT22;64572;50.950;3.676;2022-10-31T06:53:35;11.60;90.70
75893;DHT22;64572;50.950;3.676;2022-10-31T06:56:01;11.70;90.80
75893;DHT22;64572;50.950;3.676;2022-10-31T06:58:26;11.70;91.10
75893;DHT22;64572;50.950;3.676;2022-10-31T07:00:52;11.70;91.50
75893;DHT22;64572;50.950;3.676;2022-10-31T07:03:18;11.80;91.80
75893;DHT22;64572;50.950;3.676;2022-10-31T07:05:44;11.90;91.10
75893;DHT22;64572;50.950;3.676;2022-10-31T07:08:14;11.90;91.10
75893;DHT22;64572;50.950;3.676;2022-10-31T07:10:41;12.00;91.10
75893;DHT22;64572;50.950;3.676;2022-10-31T07:13:12;12.00;91.30
75893;DHT22;64572;50.950;3.676;2022-10-31T07:15:39;12.10;91.30
75893;DHT22;64572;50.950;3.676;2022-10-31T07:18:07;12.10;91.30
75893;DHT22;64572;50.950;3.676;2022-10-31T07:20:33;12.10;91.20
75893;DHT22;64572;50.950;3.676;2022-10-31T07:22:59;12.20;90.90
75893;DHT22;64572;50.950;3.676;2022-10-31T07:25:26;12.30;91.10
75893;DHT22;64572;50.950;3.676;2022-10-31T07:27:51;12.40;91.00
75893;DHT22;64572;50.950;3.676;2022-10-31T07:30:17;12.40;91.00
75893;DHT22;64572;50.950;3.676;2022-10-31T07:32:46;12.50;91.00
75893;DHT22;64572;50.950;3.676;2022-10-31T07:35:16;12.60;90.90
75893;DHT22;64572;50.950;3.676;2022-10-31T07:37:42;12.70;90.70
75893;DHT22;64572;50.950;3.676;2022-10-31T07:40:09;12.60;90.70
75893;DHT22;64572;50.950;3.676;2022-10-31T07:45:02;12.80;90.90
75893;DHT22;64572;50.950;3.676;2022-10-31T07:47:28;12.90;90.50
75893;DHT22;64572;50.950;3.676;2022-10-31T07:49:54;12.90;90.40
75893;DHT22;64572;50.950;3.676;2022-10-31T07:52:19;12.90;90.50
75893;DHT22;64572;50.950;3.676;2022-10-31T07:54:45;13.00;90.50
75893;DHT22;64572;50.950;3.676;2022-10-31T07:57:11;12.90;90.50
75893;DHT22;64572;50.950;3.676;2022-10-31T07:59:37;13.00;90.60
75893;DHT22;64572;50.950;3.676;2022-10-31T08:02:02;13.00;90.50
75893;DHT22;64572;50.950;3.676;2022-10-31T08:04:28;13.00;90.70
75893;DHT22;64572;50.950;3.676;2022-10-31T08:06:53;13.10;90.50
75893;DHT22;64572;50.950;3.676;2022-10-31T08:09:19;13.20;90.60
75893;DHT22;64572;50.950;3.676;2022-10-31T08:11:45;13.30;90.30
75893;DHT22;64572;50.950;3.676;2022-10-31T08:14:10;13.30;90.20
75893;DHT22;64572;50.950;3.676;2022-10-31T08:16:36;13.40;90.10
75893;DHT22;64572;50.950;3.676;2022-10-31T08:19:01;13.40;90.40
75893;DHT22;64572;50.950;3.676;2022-10-31T08:21:27;13.30;90.40
75893;DHT22;64572;50.950;3.676;2022-10-31T08:23:53;13.40;90.40
75893;DHT22;64572;50.950;3.676;2022-10-31T08:26:18;13.50;90.20
75893;DHT22;64572;50.950;3.676;2022-10-31T08:28:44;13.60;90.20
75893;DHT22;64572;50.950;3.676;2022-10-31T08:31:09;13.70;89.90
75893;DHT22;64572;50.950;3.676;2022-10-31T08:33:35;13.80;90.10
75893;DHT22;64572;50.950;3.676;2022-10-31T08:36:01;14.00;90.10
75893;DHT22;64572;50.950;3.676;2022-10-31T08:38:26;13.90;89.20
75893;DHT22;64572;50.950;3.676;2022-10-31T08:40:52;13.90;89.40
75893;DHT22;64572;50.950;3.676;2022-10-31T08:43:18;14.20;89.40
75893;DHT22;64572;50.950;3.676;2022-10-31T08:45:47;14.20;87.90
75893;DHT22;64572;50.950;3.676;2022-10-31T08:48:14;14.20;88.10
75893;DHT22;64572;50.950;3.676;2022-10-31T08:50:43;14.30;88.20
75893;DHT22;64572;50.950;3.676;2022-10-31T08:53:13;14.40;87.90
75893;DHT22;64572;50.950;3.676;2022-10-31T08:55:39;14.40;88.10
75893;DHT22;64572;50.950;3.676;2022-10-31T08:58:07;14.50;87.50
75893;DHT22;64572;50.950;3.676;2022-10-31T09:00:34;14.40;88.70
75893;DHT22;64572;50.950;3.676;2022-10-31T09:03:03;14.50;88.40
75893;DHT22;64572;50.950;3.676;2022-10-31T09:05:29;14.50;87.90
75893;DHT22;64572;50.950;3.676;2022-10-31T09:07:59;14.50;88.10
75893;DHT22;64572;50.950;3.676;2022-10-31T09:10:26;14.60;88.40
75893;DHT22;64572;50.950;3.676;2022-10-31T09:12:59;14.60;88.30
75893;DHT22;64572;50.950;3.676;2022-10-31T09:15:26;14.60;87.80
75893;DHT22;64572;50.950;3.676;2022-10-31T09:17:52;14.80;88.00
75893;DHT22;64572;50.950;3.676;2022-10-31T09:20:18;14.80;87.30
75893;DHT22;64572;50.950;3.676;2022-10-31T09:22:43;15.00;87.00
75893;DHT22;64572;50.950;3.676;2022-10-31T09:25:09;15.10;86.90
75893;DHT22;64572;50.950;3.676;2022-10-31T09:27:35;15.20;86.50
75893;DHT22;64572;50.950;3.676;2022-10-31T09:30:01;15.40;86.50
75893;DHT22;64572;50.950;3.676;2022-10-31T09:32:26;15.40;85.80
75893;DHT22;64572;50.950;3.676;2022-10-31T09:34:52;15.50;85.50
75893;DHT22;64572;50.950;3.676;2022-10-31T09:37:17;15.50;85.40
75893;DHT22;64572;50.950;3.676;2022-10-31T09:39:43;15.50;86.00
75893;DHT22;64572;50.950;3.676;2022-10-31T09:42:35;15.50;85.40
75893;DHT22;64572;50.950;3.676;2022-10-31T09:50:22;16.00;86.00
75893;DHT22;64572;50.950;3.676;2022-10-31T09:53:01;16.10;84.30
75893;DHT22;64572;50.950;3.676;2022-10-31T09:55:30;16.30;85.60
75893;DHT22;64572;50.950;3.676;2022-10-31T09:57:58;16.70;85.20
75893;DHT22;64572;50.950;3.676;2022-10-31T10:00:24;17.00;82.00
75893;DHT22;64572;50.950;3.676;2022-10-31T10:05:53;17.40;81.50
75893;DHT22;64572;50.950;3.676;2022-10-31T10:08:23;17.40;79.70
75893;DHT22;64572;50.950;3.676;2022-10-31T10:13:49;17.20;80.60
75893;DHT22;64572;50.950;3.676;2022-10-31T10:19:11;17.30;80.50
75893;DHT22;64572;50.950;3.676;2022-10-31T10:30:40;17.40;79.70
75893;DHT22;64572;50.950;3.676;2022-10-31T10:33:16;17.90;78.60
75893;DHT22;64572;50.950;3.676;2022-10-31T10:35:47;18.20;76.20
75893;DHT22;64572;50.950;3.676;2022-10-31T10:40:55;19.30;72.20
75893;DHT22;64572;50.950;3.676;2022-10-31T10:43:36;19.60;72.10
75893;DHT22;64572;50.950;3.676;2022-10-31T10:49:16;19.20;73.70
75893;DHT22;64572;50.950;3.676;2022-10-31T10:57:20;18.80;75.20
75893;DHT22;64572;50.950;3.676;2022-10-31T10:59:47;18.60;72.80
75893;DHT22;64572;50.950;3.676;2022-10-31T11:02:19;18.50;74.90
75893;DHT22;64572;50.950;3.676;2022-10-31T11:04:50;18.40;74.90
75893;DHT22;64572;50.950;3.676;2022-10-31T11:07:16;18.20;77.30
75893;DHT22;64572;50.950;3.676;2022-10-31T11:09:42;18.20;76.30
75893;DHT22;64572;50.950;3.676;2022-10-31T11:12:32;18.20;76.90
75893;DHT22;64572;50.950;3.676;2022-10-31T11:15:01;18.10;76.50
75893;DHT22;64572;50.950;3.676;2022-10-31T11:17:37;18.20;78.20
75893;DHT22;64572;50.950;3.676;2022-10-31T11:20:23;18.70;76.40
75893;DHT22;64572;50.950;3.676;2022-10-31T11:22:49;19.00;74.90
75893;DHT22;64572;50.950;3.676;2022-10-31T11:25:26;19.40;75.00
75893;DHT22;64572;50.950;3.676;2022-10-31T11:28:08;19.70;71.40
75893;DHT22;64572;50.950;3.676;2022-10-31T11:30:52;19.80;69.90
75893;DHT22;64572;50.950;3.676;2022-10-31T11:36:22;19.60;71.80
75893;DHT22;64572;50.950;3.676;2022-10-31T11:38:49;19.10;72.10
75893;DHT22;64572;50.950;3.676;2022-10-31T11:41:27;19.00;75.20
75893;DHT22;64572;50.950;3.676;2022-10-31T11:46:41;18.90;73.60
75893;DHT22;64572;50.950;3.676;2022-10-31T11:52:04;18.60;75.50
75893;DHT22;64572;50.950;3.676;2022-10-31T11:54:58;18.40;73.70
75893;DHT22;64572;50.950;3.676;2022-10-31T11:57:29;18.70;73.30
75893;DHT22;64572;50.950;3.676;2022-10-31T12:00:01;18.50;73.70
75893;DHT22;64572;50.950;3.676;2022-10-31T12:02:28;18.70;73.50
75893;DHT22;64572;50.950;3.676;2022-10-31T12:05:24;18.90;73.30
75893;DHT22;64572;50.950;3.676;2022-10-31T12:07:54;18.50;74.70
75893;DHT22;64572;50.950;3.676;2022-10-31T12:10:24;18.60;74.70
75893;DHT22;64572;50.950;3.676;2022-10-31T12:13:07;18.70;75.30
75893;DHT22;64572;50.950;3.676;2022-10-31T12:15:36;18.50;75.30
75893;DHT22;64572;50.950;3.676;2022-10-31T12:23:38;18.30;76.60
75893;DHT22;64572;50.950;3.676;2022-10-31T12:26:34;18.60;78.00
75893;DHT22;64572;50.950;3.676;2022-10-31T12:57:39;18.10;77.60
75893;DHT22;64572;50.950;3.676;2022-10-31T13:00:13;18.20;77.70
75893;DHT22;64572;50.950;3.676;2022-10-31T13:02:48;18.40;76.90
75893;DHT22;64572;50.950;3.676;2022-10-31T13:05:37;19.60;73.10
75893;DHT22;64572;50.950;3.676;2022-10-31T13:10:37;22.90;63.20
75893;DHT22;64572;50.950;3.676;2022-10-31T13:15:56;28.50;48.20
75893;DHT22;64572;50.950;3.676;2022-10-31T13:18:28;29.40;47.00
75893;DHT22;64572;50.950;3.676;2022-10-31T13:20:55;30.20;44.60
75893;DHT22;64572;50.950;3.676;2022-10-31T13:23:33;29.00;44.70
75893;DHT22;64572;50.950;3.676;2022-10-31T13:26:18;29.10;45.20
75893;DHT22;64572;50.950;3.676;2022-10-31T13:31:25;27.40;49.10
75893;DHT22;64572;50.950;3.676;2022-10-31T13:33:55;27.00;49.00
75893;DHT22;64572;50.950;3.676;2022-10-31T13:39:11;29.40;46.20
75893;DHT22;64572;50.950;3.676;2022-10-31T13:42:19;30.50;43.80
75893;DHT22;64572;50.950;3.676;2022-10-31T13:44:35;30.10;43.80
75893;DHT22;64572;50.950;3.676;2022-10-31T13:49:45;29.80;44.20
75893;DHT22;64572;50.950;3.676;2022-10-31T13:54:48;28.20;48.30
75893;DHT22;64572;50.950;3.676;2022-10-31T13:57:41;27.60;49.50
75893;DHT22;64572;50.950;3.676;2022-10-31T14:02:46;25.20;53.40
75893;DHT22;64572;50.950;3.676;2022-10-31T14:05:23;24.00;57.20
75893;DHT22;64572;50.950;3.676;2022-10-31T14:07:54;22.90;61.30
75893;DHT22;64572;50.950;3.676;2022-10-31T14:10:28;21.80;64.40
75893;DHT22;64572;50.950;3.676;2022-10-31T14:13:18;21.80;64.90
75893;DHT22;64572;50.950;3.676;2022-10-31T14:15:55;21.80;64.60
75893;DHT22;64572;50.950;3.676;2022-10-31T14:18:32;21.40;66.70
75893;DHT22;64572;50.950;3.676;2022-10-31T14:20:59;21.20;66.70
75893;DHT22;64572;50.950;3.676;2022-10-31T14:28:52;20.50;70.50
75893;DHT22;64572;50.950;3.676;2022-10-31T14:31:41;20.80;69.50
75893;DHT22;64572;50.950;3.676;2022-10-31T14:34:33;20.80;68.90
75893;DHT22;64572;50.950;3.676;2022-10-31T14:51:00;19.30;75.30
75893;DHT22;64572;50.950;3.676;2022-10-31T14:53:30;19.20;75.40
75893;DHT22;64572;50.950;3.676;2022-10-31T14:55:57;19.00;76.20
75893;DHT22;64572;50.950;3.676;2022-10-31T14:58:43;19.10;75.80
75893;DHT22;64572;50.950;3.676;2022-10-31T15:01:28;18.90;77.20
75893;DHT22;64572;50.950;3.676;2022-10-31T15:06:47;18.60;78.30
75893;DHT22;64572;50.950;3.676;2022-10-31T15:09:30;18.60;78.50
75893;DHT22;64572;50.950;3.676;2022-10-31T15:11:58;18.50;78.50
75893;DHT22;64572;50.950;3.676;2022-10-31T15:14:30;18.50;78.90
75893;DHT22;64572;50.950;3.676;2022-10-31T15:16:57;18.40;79.00
75893;DHT22;64572;50.950;3.676;2022-10-31T15:19:28;18.30;79.20
75893;DHT22;64572;50.950;3.676;2022-10-31T15:21:56;18.30;79.20
75893;DHT22;64572;50.950;3.676;2022-10-31T15:24:25;18.20;80.30
75893;DHT22;64572;50.950;3.676;2022-10-31T15:26:53;18.10;80.10
75893;DHT22;64572;50.950;3.676;2022-10-31T15:29:22;18.10;80.90
75893;DHT22;64572;50.950;3.676;2022-10-31T15:32:15;18.10;80.60
75893;DHT22;64572;50.950;3.676;2022-10-31T15:34:42;18.00;80.60
75893;DHT22;64572;50.950;3.676;2022-10-31T15:37:15;17.90;80.70
75893;DHT22;64572;50.950;3.676;2022-10-31T15:39:45;18.00;80.30
75893;DHT22;64572;50.950;3.676;2022-10-31T15:44:49;17.70;80.90
75893;DHT22;64572;50.950;3.676;2022-10-31T15:47:18;17.50;82.80
75893;DHT22;64572;50.950;3.676;2022-10-31T15:49:56;17.30;82.90
75893;DHT22;64572;50.950;3.676;2022-10-31T15:52:25;17.10;84.70
75893;DHT22;64572;50.950;3.676;2022-10-31T15:54:55;16.90;85.30
75893;DHT22;64572;50.950;3.676;2022-10-31T15:57:23;16.80;85.20
75893;DHT22;64572;50.950;3.676;2022-10-31T15:59:51;17.10;84.10
75893;DHT22;64572;50.950;3.676;2022-10-31T16:02:26;17.20;81.80
75893;DHT22;64572;50.950;3.676;2022-10-31T16:05:00;17.20;81.60
75893;DHT22;64572;50.950;3.676;2022-10-31T16:07:27;17.00;82.30
75893;DHT22;64572;50.950;3.676;2022-10-31T16:10:02;17.10;81.60
75893;DHT22;64572;50.950;3.676;2022-10-31T16:12:42;17.00;81.80
75893;DHT22;64572;50.950;3.676;2022-10-31T16:15:14;17.00;81.20
75893;DHT22;64572;50.950;3.676;2022-10-31T16:17:41;16.90;80.70
75893;DHT22;64572;50.950;3.676;2022-10-31T16:20:16;16.80;81.00
75893;DHT22;64572;50.950;3.676;2022-10-31T16:22:48;16.90;80.50
75893;DHT22;64572;50.950;3.676;2022-10-31T16:25:24;16.80;79.60
75893;DHT22;64572;50.950;3.676;2022-10-31T16:27:52;16.70;79.70
75893;DHT22;64572;50.950;3.676;2022-10-31T16:30:35;16.70;79.80
75893;DHT22;64572;50.950;3.676;2022-10-31T16:33:02;16.60;79.60
75893;DHT22;64572;50.950;3.676;2022-10-31T16:35:38;16.50;79.10
75893;DHT22;64572;50.950;3.676;2022-10-31T16:38:05;16.40;80.50
75893;DHT22;64572;50.950;3.676;2022-10-31T16:40:31;16.50;80.20
75893;DHT22;64572;50.950;3.676;2022-10-31T16:42:59;16.50;79.90
75893;DHT22;64572;50.950;3.676;2022-10-31T16:45:27;16.50;80.10
75893;DHT22;64572;50.950;3.676;2022-10-31T16:47:53;16.40;80.60
75893;DHT22;64572;50.950;3.676;2022-10-31T16:50:24;16.30;80.20
75893;DHT22;64572;50.950;3.676;2022-10-31T16:52:50;16.30;80.60
75893;DHT22;64572;50.950;3.676;2022-10-31T16:55:18;16.30;80.80
75893;DHT22;64572;50.950;3.676;2022-10-31T16:57:50;16.20;80.80
75893;DHT22;64572;50.950;3.676;2022-10-31T17:00:19;16.10;80.90
75893;DHT22;64572;50.950;3.676;2022-10-31T17:02:45;16.10;81.30
75893;DHT22;64572;50.950;3.676;2022-10-31T17:05:13;16.00;81.00
75893;DHT22;64572;50.950;3.676;2022-10-31T17:07:40;16.10;81.30
75893;DHT22;64572;50.950;3.676;2022-10-31T17:10:06;16.10;80.50
75893;DHT22;64572;50.950;3.676;2022-10-31T17:12:32;15.90;81.20
75893;DHT22;64572;50.950;3.676;2022-10-31T17:14:58;15.90;81.50
75893;DHT22;64572;50.950;3.676;2022-10-31T17:17:24;15.90;81.50
75893;DHT22;64572;50.950;3.676;2022-10-31T17:19:49;15.80;81.70
75893;DHT22;64572;50.950;3.676;2022-10-31T17:22:15;15.80;81.90
75893;DHT22;64572;50.950;3.676;2022-10-31T17:24:41;15.60;82.40
75893;DHT22;64572;50.950;3.676;2022-10-31T17:27:07;15.70;82.50
75893;DHT22;64572;50.950;3.676;2022-10-31T17:29:32;15.80;82.20
75893;DHT22;64572;50.950;3.676;2022-10-31T17:31:58;15.80;81.90
75893;DHT22;64572;50.950;3.676;2022-10-31T17:34:24;15.70;81.60
75893;DHT22;64572;50.950;3.676;2022-10-31T17:36:51;15.60;82.40
75893;DHT22;64572;50.950;3.676;2022-10-31T17:39:18;15.60;82.10
75893;DHT22;64572;50.950;3.676;2022-10-31T17:41:44;15.50;82.30
75893;DHT22;64572;50.950;3.676;2022-10-31T17:44:10;15.50;83.10
75893;DHT22;64572;50.950;3.676;2022-10-31T17:46:37;15.50;83.80
75893;DHT22;64572;50.950;3.676;2022-10-31T17:49:03;15.50;83.70
75893;DHT22;64572;50.950;3.676;2022-10-31T17:51:31;15.60;83.50
75893;DHT22;64572;50.950;3.676;2022-10-31T17:53:57;15.60;83.50
75893;DHT22;64572;50.950;3.676;2022-10-31T17:56:23;15.60;83.60
75893;DHT22;64572;50.950;3.676;2022-10-31T17:58:49;15.70;83.40
75893;DHT22;64572;50.950;3.676;2022-10-31T18:01:17;15.70;83.40
75893;DHT22;64572;50.950;3.676;2022-10-31T18:03:43;15.70;83.50
75893;DHT22;64572;50.950;3.676;2022-10-31T18:06:10;15.90;82.60
75893;DHT22;64572;50.950;3.676;2022-10-31T18:08:38;16.00;82.50
75893;DHT22;64572;50.950;3.676;2022-10-31T18:11:09;15.90;82.70
75893;DHT22;64572;50.950;3.676;2022-10-31T18:13:35;16.00;82.20